createdAt,value
2019-01-04T00:01:55.360Z,5.53
2019-01-04T00:04:29.570Z,5.03
2019-01-04T00:07:01.928Z,4.23
2019-01-04T00:09:34.583Z,4.23
2019-01-04T00:12:06.990Z,3.23
2019-01-04T00:14:40.684Z,2.80
2019-01-04T00:17:13.539Z,3.20
2019-01-04T00:19:46.097Z,3.20
2019-01-04T00:22:18.559Z,3.30
2019-01-04T00:24:50.846Z,3.80
2019-01-04T00:27:24.194Z,3.27
2019-01-04T00:29:57.062Z,3.40
2019-01-04T00:32:29.283Z,4.00
2019-01-04T00:35:02.401Z,3.83
2019-01-04T00:37:34.704Z,3.80
2019-01-04T00:40:07.843Z,4.20
2019-01-04T00:42:42.338Z,4.87
2019-01-04T00:45:14.596Z,3.57
2019-01-04T00:47:47.166Z,4.47
2019-01-04T00:50:19.398Z,4.43
2019-01-04T00:52:51.612Z,3.97
2019-01-04T00:55:40.033Z,3.47
2019-01-04T00:58:46.662Z,4.80
2019-01-04T01:01:44.127Z,3.57
2019-01-04T01:04:33.570Z,2.00
2019-01-04T01:07:28.010Z,2.47
2019-01-04T01:10:39.404Z,2.00
2019-01-04T01:13:25.242Z,1.80
2019-01-04T01:16:11.892Z,1.40
2019-01-04T01:19:15.504Z,1.40
2019-01-04T01:21:56.072Z,1.37
2019-01-04T01:24:46.684Z,1.70
2019-01-04T01:27:27.496Z,4.10
2019-01-04T01:30:19.344Z,1.80
2019-01-04T01:33:16.754Z,1.43
2019-01-04T01:35:58.048Z,1.30
2019-01-04T01:38:50.028Z,1.30
2019-01-04T01:41:51.576Z,1.10
2019-01-04T01:44:57.639Z,1.20
2019-01-04T01:47:40.475Z,1.40
2019-01-04T01:50:34.807Z,1.40
2019-01-04T01:53:07.580Z,1.07
2019-01-04T01:55:40.070Z,1.27
2019-01-04T01:58:12.336Z,1.40
2019-01-04T02:00:44.596Z,1.40
2019-01-04T02:03:17.062Z,1.37
2019-01-04T02:06:01.618Z,2.23
2019-01-04T02:08:34.698Z,1.83
2019-01-04T02:11:08.272Z,1.70
2019-01-04T02:13:41.092Z,1.27
2019-01-04T02:16:13.441Z,1.83
2019-01-04T02:18:46.120Z,1.20
2019-01-04T02:21:33.040Z,1.40
2019-01-04T02:24:05.778Z,1.60
2019-01-04T02:26:38.244Z,1.50
2019-01-04T02:29:10.874Z,1.13
2019-01-04T02:31:43.137Z,1.30
2019-01-04T02:34:15.606Z,1.43
2019-01-04T02:36:50.488Z,1.67
2019-01-04T02:39:22.943Z,1.30
2019-01-04T02:41:56.338Z,1.60
2019-01-04T02:44:29.058Z,1.30
2019-01-04T02:47:02.759Z,1.53
2019-01-04T02:49:35.677Z,1.30
2019-01-04T02:52:08.085Z,1.40
2019-01-04T02:54:40.640Z,1.57
2019-01-04T02:57:13.430Z,1.63
2019-01-04T02:59:45.884Z,2.40
2019-01-04T03:02:18.544Z,1.83
2019-01-04T03:04:51.102Z,1.77
2019-01-04T03:07:23.531Z,1.20
2019-01-04T03:09:56.268Z,2.10
2019-01-04T03:12:28.445Z,1.90
2019-01-04T03:15:00.283Z,1.30
2019-01-04T03:17:32.502Z,1.10
2019-01-04T03:20:05.361Z,1.00
2019-01-04T03:22:38.064Z,2.17
2019-01-04T03:25:10.732Z,1.33
2019-01-04T03:27:43.116Z,1.50
2019-01-04T03:30:15.197Z,1.80
2019-01-04T03:32:47.533Z,1.63
2019-01-04T03:35:22.122Z,2.37
2019-01-04T03:37:53.012Z,1.47
2019-01-04T03:40:25.428Z,1.50
2019-01-04T03:42:57.777Z,1.20
2019-01-04T03:45:31.306Z,1.40
2019-01-04T03:48:09.687Z,1.37
2019-01-04T03:50:44.783Z,1.40
2019-01-04T03:53:17.270Z,2.30
2019-01-04T03:55:53.461Z,1.43
2019-01-04T03:58:25.882Z,1.60
2019-01-04T04:00:58.206Z,1.50
2019-01-04T04:03:30.386Z,1.73
2019-01-04T04:06:02.656Z,2.30
2019-01-04T04:08:35.036Z,2.67
2019-01-04T04:11:07.866Z,2.27
2019-01-04T04:13:40.111Z,2.30
2019-01-04T04:16:12.660Z,1.47
2019-01-04T04:18:45.052Z,1.30
2019-01-04T04:21:30.800Z,2.10
2019-01-04T04:24:04.128Z,1.50
2019-01-04T04:26:37.147Z,1.40
2019-01-04T04:29:09.274Z,2.80
2019-01-04T04:31:41.522Z,1.90
2019-01-04T04:34:13.825Z,1.63
2019-01-04T04:36:46.349Z,1.20
2019-01-04T04:39:18.851Z,2.23
2019-01-04T04:41:51.296Z,2.77
2019-01-04T04:44:23.810Z,1.97
2019-01-04T04:46:56.964Z,1.70
2019-01-04T04:49:29.380Z,1.87
2019-01-04T04:52:02.058Z,2.00
2019-01-04T04:54:34.187Z,1.60
2019-01-04T04:57:06.941Z,3.43
2019-01-04T04:59:39.658Z,1.80
2019-01-04T05:02:12.123Z,1.50
2019-01-04T05:04:44.633Z,1.70
2019-01-04T05:07:17.073Z,4.30
2019-01-04T05:09:49.364Z,1.83
2019-01-04T05:12:21.715Z,2.10
2019-01-04T05:14:53.996Z,1.77
2019-01-04T05:17:27.687Z,1.87
2019-01-04T05:20:00.341Z,1.67
2019-01-04T05:22:32.969Z,1.60
2019-01-04T05:25:05.613Z,1.40
2019-01-04T05:27:38.068Z,2.87
2019-01-04T05:30:15.174Z,2.37
2019-01-04T05:32:47.826Z,1.97
2019-01-04T05:35:20.182Z,1.80
2019-01-04T05:37:52.364Z,1.70
2019-01-04T05:40:24.670Z,2.20
2019-01-04T05:42:57.477Z,2.20
2019-01-04T05:45:29.783Z,3.20
2019-01-04T05:48:03.500Z,4.57
2019-01-04T05:50:35.924Z,5.20
2019-01-04T05:53:08.565Z,3.30
2019-01-04T05:55:41.250Z,2.77
2019-01-04T05:58:13.879Z,2.50
2019-01-04T06:00:46.469Z,3.60
2019-01-04T06:03:18.965Z,1.57
2019-01-04T06:05:52.405Z,2.20
2019-01-04T06:08:25.110Z,3.03
2019-01-04T06:10:57.417Z,6.53
2019-01-04T06:13:52.868Z,4.70
2019-01-04T06:16:25.466Z,1.93
2019-01-04T06:18:57.888Z,1.97
2019-01-04T06:21:30.243Z,1.73
2019-01-04T06:24:03.638Z,1.60
2019-01-04T06:26:36.134Z,3.43
2019-01-04T06:29:09.142Z,3.33
2019-01-04T06:31:41.528Z,1.97
2019-01-04T06:34:14.584Z,3.60
2019-01-04T06:36:47.439Z,2.40
2019-01-04T06:39:19.992Z,4.47
2019-01-04T06:41:52.861Z,4.10
2019-01-04T06:44:25.723Z,3.20
2019-01-04T06:47:13.567Z,4.27
2019-01-04T06:49:47.936Z,3.17
2019-01-04T06:52:21.616Z,3.07
2019-01-04T06:55:11.348Z,3.27
2019-01-04T06:57:43.835Z,3.40
2019-01-04T07:00:16.521Z,5.70
2019-01-04T07:02:49.129Z,7.03
2019-01-04T07:05:21.958Z,5.87
2019-01-04T07:07:54.363Z,3.30
2019-01-04T07:10:27.012Z,3.77
2019-01-04T07:12:59.696Z,3.43
2019-01-04T07:15:32.122Z,12.63
2019-01-04T07:18:04.739Z,5.20
2019-01-04T07:20:37.506Z,3.93
2019-01-04T07:23:10.156Z,2.80
2019-01-04T07:25:42.794Z,3.10
2019-01-04T07:28:16.150Z,2.20
2019-01-04T07:30:49.157Z,2.23
2019-01-04T07:33:21.847Z,3.00
2019-01-04T07:35:54.269Z,4.60
2019-01-04T07:38:27.488Z,3.03
2019-01-04T07:41:02.246Z,3.77
2019-01-04T07:43:34.894Z,5.20
2019-01-04T07:46:07.751Z,3.20
2019-01-04T07:48:41.201Z,3.57
2019-01-04T07:51:15.034Z,2.73
2019-01-04T07:53:48.294Z,3.10
2019-01-04T07:56:21.681Z,2.97
2019-01-04T07:58:55.022Z,2.27
2019-01-04T08:01:27.548Z,5.10
2019-01-04T08:04:00.084Z,4.23
2019-01-04T08:06:34.215Z,3.13
2019-01-04T08:09:08.142Z,4.00
2019-01-04T08:11:41.191Z,2.87
2019-01-04T08:14:15.374Z,4.10
2019-01-04T08:16:48.472Z,2.97
2019-01-04T08:19:20.903Z,3.67
2019-01-04T08:21:53.129Z,5.07
2019-01-04T08:24:26.324Z,2.70
2019-01-04T08:26:59.601Z,2.20
2019-01-04T08:29:32.503Z,2.70
2019-01-04T08:32:05.276Z,4.50
2019-01-04T08:34:38.279Z,6.17
2019-01-04T08:37:11.067Z,3.77
2019-01-04T08:39:46.451Z,3.67
2019-01-04T08:42:20.958Z,4.33
2019-01-04T08:44:53.497Z,9.60
2019-01-04T08:47:28.665Z,7.07
2019-01-04T08:50:04.121Z,4.67
2019-01-04T08:52:37.220Z,5.80
2019-01-04T08:55:12.100Z,2.83
2019-01-04T08:57:45.389Z,2.70
2019-01-04T09:00:18.153Z,3.23
2019-01-04T09:02:52.803Z,4.83
2019-01-04T09:05:25.304Z,3.90
2019-01-04T09:07:58.232Z,3.83
2019-01-04T09:10:31.718Z,2.90
2019-01-04T09:13:05.262Z,3.30
2019-01-04T09:15:38.102Z,3.40
2019-01-04T09:18:11.172Z,3.50
2019-01-04T09:20:44.558Z,2.60
2019-01-04T09:23:17.490Z,3.57
2019-01-04T09:25:50.130Z,3.10
2019-01-04T09:28:23.736Z,2.83
2019-01-04T09:30:56.168Z,2.40
2019-01-04T09:33:30.994Z,2.80
2019-01-04T09:36:04.183Z,2.77
2019-01-04T09:38:37.032Z,3.30
2019-01-04T09:41:30.105Z,3.23
2019-01-04T09:44:03.203Z,3.57
2019-01-04T09:46:35.932Z,3.30
2019-01-04T09:49:08.630Z,3.30
2019-01-04T09:51:43.430Z,3.97
2019-01-04T09:54:17.236Z,3.27
2019-01-04T09:56:49.390Z,3.03
2019-01-04T09:59:23.798Z,3.30
2019-01-04T10:01:57.397Z,4.20
2019-01-04T10:04:29.341Z,4.17
2019-01-04T10:07:01.964Z,22.43
2019-01-04T10:09:34.511Z,6.70
2019-01-04T10:12:07.277Z,5.07
2019-01-04T10:14:40.217Z,4.10
2019-01-04T10:17:12.912Z,3.90
2019-01-04T10:19:45.512Z,5.73
2019-01-04T10:22:18.492Z,3.87
2019-01-04T10:24:51.774Z,4.13
2019-01-04T10:27:24.392Z,4.20
2019-01-04T10:29:56.873Z,3.20
2019-01-04T10:32:31.560Z,3.20
2019-01-04T10:35:10.275Z,6.80
2019-01-04T10:37:38.886Z,5.20
2019-01-04T10:40:11.612Z,4.50
2019-01-04T10:42:43.518Z,5.43
2019-01-04T10:45:17.718Z,2.50
2019-01-04T10:47:51.279Z,2.40
2019-01-04T10:50:23.978Z,3.83
2019-01-04T10:52:57.933Z,3.57
2019-01-04T10:55:35.647Z,3.03
2019-01-04T10:58:09.983Z,3.67
2019-01-04T11:00:45.583Z,3.67
2019-01-04T11:03:18.650Z,3.30
2019-01-04T11:05:52.204Z,3.20
2019-01-04T11:08:25.905Z,2.87
2019-01-04T11:11:01.242Z,3.03
2019-01-04T11:13:33.791Z,4.53
2019-01-04T11:16:08.874Z,3.80
2019-01-04T11:18:42.653Z,3.50
2019-01-04T11:21:17.270Z,2.50
2019-01-04T11:24:10.822Z,4.83
2019-01-04T11:26:56.632Z,4.20
2019-01-04T11:29:50.790Z,4.20
2019-01-04T11:32:44.219Z,3.20
2019-01-04T11:35:34.027Z,6.10
2019-01-04T11:38:26.791Z,3.20
2019-01-04T11:41:27.796Z,3.20
2019-01-04T11:44:20.993Z,2.93
2019-01-04T11:47:05.872Z,2.97
2019-01-04T11:49:50.609Z,7.37
2019-01-04T11:52:31.320Z,3.50
2019-01-04T11:55:04.123Z,8.33
2019-01-04T11:57:40.717Z,6.10
2019-01-04T12:00:14.483Z,2.97
2019-01-04T12:02:45.752Z,3.50
2019-01-04T12:05:23.399Z,4.27
2019-01-04T12:07:55.911Z,3.97
2019-01-04T12:10:30.011Z,4.87
2019-01-04T12:13:02.824Z,5.63
2019-01-04T12:15:35.810Z,7.03
2019-01-04T12:18:09.313Z,5.20
2019-01-04T12:20:45.412Z,4.13
2019-01-04T12:23:19.317Z,5.90
2019-01-04T12:25:53.963Z,3.90
2019-01-04T12:28:26.478Z,3.73
2019-01-04T12:31:01.417Z,3.97
2019-01-04T12:33:34.479Z,3.90
2019-01-04T12:36:07.646Z,4.20
2019-01-04T12:38:40.435Z,2.87
2019-01-04T12:41:14.151Z,3.77
2019-01-04T12:43:47.981Z,3.60
2019-01-04T12:46:20.979Z,2.47
2019-01-04T12:48:54.635Z,4.83
2019-01-04T12:51:28.209Z,3.17
2019-01-04T12:54:00.817Z,3.93
2019-01-04T12:56:33.795Z,4.70
2019-01-04T12:59:07.006Z,4.13
2019-01-04T13:01:39.879Z,4.30
2019-01-04T13:04:12.968Z,5.53
2019-01-04T13:06:47.543Z,5.53
2019-01-04T13:09:21.343Z,5.97
2019-01-04T13:11:54.244Z,13.23
2019-01-04T13:14:27.143Z,6.50
2019-01-04T13:17:00.532Z,6.63
2019-01-04T13:19:34.076Z,4.30
2019-01-04T13:22:06.915Z,4.50
2019-01-04T13:24:39.570Z,4.20
2019-01-04T13:27:12.060Z,6.20
2019-01-04T13:29:45.021Z,6.23
2019-01-04T13:32:17.994Z,4.07
2019-01-04T13:34:51.021Z,4.43
2019-01-04T13:37:25.410Z,6.33
2019-01-04T13:39:58.568Z,6.07
2019-01-04T13:42:32.129Z,6.27
2019-01-04T13:45:05.446Z,4.77
2019-01-04T13:47:39.152Z,4.30
2019-01-04T13:50:12.726Z,5.43
2019-01-04T13:52:45.877Z,4.03
2019-01-04T13:55:19.962Z,5.57
2019-01-04T13:57:53.392Z,4.27
2019-01-04T14:00:29.022Z,4.23
2019-01-04T14:03:02.645Z,3.60
2019-01-04T14:05:35.635Z,4.00
2019-01-04T14:08:09.381Z,5.87
2019-01-04T14:10:43.189Z,6.47
2019-01-04T14:13:15.976Z,5.70
2019-01-04T14:15:48.763Z,6.43
2019-01-04T14:18:21.431Z,5.83
2019-01-04T14:20:58.891Z,6.20
2019-01-04T14:23:32.185Z,5.10
2019-01-04T14:26:04.782Z,6.60
2019-01-04T14:28:38.824Z,7.07
2019-01-04T14:31:14.528Z,5.60
2019-01-04T14:33:47.356Z,6.30
2019-01-04T14:36:20.082Z,6.13
2019-01-04T14:38:54.509Z,10.13
2019-01-04T14:41:30.408Z,6.13
2019-01-04T14:44:04.436Z,6.17
2019-01-04T14:46:37.790Z,5.17
2019-01-04T14:49:12.191Z,4.80
2019-01-04T14:51:44.725Z,4.23
2019-01-04T14:54:18.505Z,5.43
2019-01-04T14:56:53.045Z,5.77
2019-01-04T14:59:25.765Z,3.87
2019-01-04T15:02:01.888Z,4.33
2019-01-04T15:04:35.157Z,6.77
2019-01-04T15:07:09.965Z,6.40
2019-01-04T15:09:44.414Z,6.40
2019-01-04T15:12:16.920Z,5.03
2019-01-04T15:14:48.767Z,6.53
2019-01-04T15:17:22.081Z,7.33
2019-01-04T15:19:54.682Z,9.33
2019-01-04T15:22:29.645Z,6.33
2019-01-04T15:25:03.302Z,8.17
2019-01-04T15:27:35.748Z,7.10
2019-01-04T15:30:12.423Z,6.80
2019-01-04T15:32:44.841Z,6.60
2019-01-04T15:35:19.136Z,10.17
2019-01-04T15:37:52.574Z,9.30
2019-01-04T15:40:26.694Z,8.50
2019-01-04T15:43:01.635Z,8.80
2019-01-04T15:45:35.605Z,9.63
2019-01-04T15:48:08.089Z,7.70
2019-01-04T15:50:40.889Z,6.67
2019-01-04T15:53:13.689Z,6.63
2019-01-04T15:55:46.278Z,8.03
2019-01-04T15:58:18.831Z,7.47
2019-01-04T16:00:51.923Z,8.47
2019-01-04T16:03:26.448Z,6.10
2019-01-04T16:06:01.084Z,5.17
2019-01-04T16:08:33.197Z,6.90
2019-01-04T16:11:06.224Z,4.83
2019-01-04T16:13:38.167Z,7.20
2019-01-04T16:16:11.865Z,6.30
2019-01-04T16:18:45.163Z,9.40
2019-01-04T16:21:18.994Z,5.17
2019-01-04T16:23:51.576Z,9.93
2019-01-04T16:26:25.944Z,5.97
2019-01-04T16:28:58.384Z,6.60
2019-01-04T16:31:31.672Z,7.23
2019-01-04T16:34:05.091Z,6.70
2019-01-04T16:36:38.179Z,7.67
2019-01-04T16:39:11.312Z,8.27
2019-01-04T16:41:44.351Z,11.10
2019-01-04T16:44:17.274Z,7.00
2019-01-04T16:46:50.785Z,8.40
2019-01-04T16:49:23.663Z,9.90
2019-01-04T16:51:56.865Z,6.47
2019-01-04T16:54:30.803Z,6.57
2019-01-04T16:57:04.183Z,7.33
2019-01-04T16:59:37.374Z,7.70
2019-01-04T17:02:11.623Z,8.57
2019-01-04T17:04:45.318Z,8.23
2019-01-04T17:07:18.974Z,7.83
2019-01-04T17:09:51.746Z,7.47
2019-01-04T17:12:24.816Z,8.17
2019-01-04T17:14:57.356Z,9.80
2019-01-04T17:17:30.098Z,7.43
2019-01-04T17:20:02.808Z,10.07
2019-01-04T17:22:36.321Z,9.00
2019-01-04T17:25:09.575Z,9.33
2019-01-04T17:27:43.203Z,7.23
2019-01-04T17:30:15.656Z,8.03
2019-01-04T17:32:48.343Z,7.10
2019-01-04T17:35:21.997Z,4.77
2019-01-04T17:37:56.106Z,4.67
2019-01-04T17:40:35.385Z,9.47
2019-01-04T17:43:08.476Z,8.57
2019-01-04T17:45:40.964Z,11.60
2019-01-04T17:48:14.009Z,8.13
2019-01-04T17:50:49.079Z,6.73
2019-01-04T17:53:22.610Z,6.97
2019-01-04T17:55:55.044Z,7.57
2019-01-04T17:58:27.623Z,6.93
2019-01-04T18:01:00.279Z,7.53
2019-01-04T18:03:33.602Z,9.63
2019-01-04T18:06:07.109Z,9.90
2019-01-04T18:08:39.963Z,8.00
2019-01-04T18:11:15.064Z,7.27
2019-01-04T18:13:52.131Z,7.73
2019-01-04T18:16:24.062Z,7.43
2019-01-04T18:18:56.735Z,7.87
2019-01-04T18:21:30.001Z,9.00
2019-01-04T18:24:03.523Z,10.60
2019-01-04T18:26:35.998Z,11.63
2019-01-04T18:29:08.459Z,12.70
2019-01-04T18:31:40.972Z,13.27
2019-01-04T18:34:13.919Z,12.53
2019-01-04T18:36:46.441Z,11.83
2019-01-04T18:39:20.244Z,12.87
2019-01-04T18:41:52.746Z,14.27
2019-01-04T18:44:24.033Z,15.03
2019-01-04T18:46:56.668Z,13.83
2019-01-04T18:49:30.585Z,14.60
2019-01-04T18:52:04.091Z,14.53
2019-01-04T18:54:36.742Z,18.60
2019-01-04T18:57:09.762Z,16.97
2019-01-04T18:59:42.637Z,19.80
2019-01-04T19:02:15.333Z,17.97
2019-01-04T19:04:49.264Z,17.53
2019-01-04T19:07:23.368Z,16.13
2019-01-04T19:09:56.311Z,18.37
2019-01-04T19:12:29.269Z,17.63
2019-01-04T19:15:02.506Z,15.20
2019-01-04T19:17:35.364Z,16.30
2019-01-04T19:20:08.974Z,17.57
2019-01-04T19:22:41.955Z,16.60
2019-01-04T19:25:13.964Z,14.63
2019-01-04T19:27:46.924Z,14.77
2019-01-04T19:30:20.324Z,14.90
2019-01-04T19:32:55.304Z,14.97
2019-01-04T19:35:28.700Z,15.57
2019-01-04T19:38:02.277Z,15.77
2019-01-04T19:40:35.058Z,16.50
2019-01-04T19:43:08.342Z,17.10
2019-01-04T19:45:41.065Z,19.40
2019-01-04T19:48:13.637Z,20.03
2019-01-04T19:50:46.290Z,15.37
2019-01-04T19:53:19.300Z,12.07
2019-01-04T19:55:52.813Z,11.63
2019-01-04T19:58:26.176Z,11.80
2019-01-04T20:00:58.931Z,8.47
2019-01-04T20:03:31.416Z,8.77
2019-01-04T20:06:39.188Z,15.47
2019-01-04T20:09:47.202Z,11.07
2019-01-04T20:13:12.289Z,12.47
2019-01-04T20:16:18.153Z,9.87
2019-01-04T20:19:26.545Z,13.00
2019-01-04T20:22:18.828Z,14.37
2019-01-04T20:25:11.304Z,14.17
2019-01-04T20:28:11.074Z,14.90
2019-01-04T20:31:22.598Z,16.47
2019-01-04T20:34:21.621Z,14.23
2019-01-04T20:37:14.061Z,14.60
2019-01-04T20:40:04.990Z,16.23
2019-01-04T20:43:07.615Z,17.03
2019-01-04T20:46:06.792Z,15.57
2019-01-04T20:49:02.908Z,15.77
2019-01-04T20:51:54.054Z,16.77
2019-01-04T20:55:04.668Z,15.60
2019-01-04T20:57:56.050Z,13.73
2019-01-04T21:00:48.919Z,13.23
2019-01-04T21:03:51.070Z,12.23
2019-01-04T21:06:43.493Z,13.03
2019-01-04T21:09:35.394Z,13.93
2019-01-04T21:12:27.162Z,15.93
2019-01-04T21:15:36.080Z,14.63
2019-01-04T21:18:36.471Z,14.63
2019-01-04T21:21:41.173Z,14.07
2019-01-04T21:24:32.973Z,13.60
2019-01-04T21:27:38.766Z,15.70
2019-01-04T21:30:41.644Z,13.10
2019-01-04T21:33:34.439Z,14.00
2019-01-04T21:36:36.620Z,12.87
2019-01-04T21:39:27.838Z,11.70
2019-01-04T21:42:29.900Z,14.90
2019-01-04T21:45:20.993Z,15.33
2019-01-04T21:48:14.279Z,15.43
2019-01-04T21:51:06.690Z,13.93
2019-01-04T21:54:04.696Z,11.60
2019-01-04T21:57:02.116Z,12.53
2019-01-04T21:59:54.220Z,14.53
2019-01-04T22:02:37.085Z,12.43
2019-01-04T22:05:48.473Z,11.87
2019-01-04T22:08:41.198Z,12.27
2019-01-04T22:11:34.793Z,12.00
2019-01-04T22:14:38.755Z,12.10
2019-01-04T22:17:29.902Z,12.07
2019-01-04T22:20:22.155Z,12.20
2019-01-04T22:23:12.109Z,13.30
2019-01-04T22:26:08.763Z,13.30
2019-01-04T22:28:58.488Z,13.53
2019-01-04T22:32:06.864Z,13.73
2019-01-04T22:34:59.738Z,13.63
2019-01-04T22:37:50.332Z,13.23
2019-01-04T22:40:40.890Z,11.70
2019-01-04T22:43:31.696Z,12.03
2019-01-04T22:46:23.968Z,11.83
2019-01-04T22:49:23.849Z,12.33
2019-01-04T22:52:20.272Z,10.83
2019-01-04T22:55:11.308Z,12.80
2019-01-04T22:57:59.853Z,11.10
2019-01-04T23:01:08.242Z,10.20
2019-01-04T23:04:00.484Z,10.27
2019-01-04T23:07:02.774Z,10.87
2019-01-04T23:09:54.383Z,11.17
2019-01-04T23:12:42.924Z,9.63
2019-01-04T23:15:34.345Z,9.53
2019-01-04T23:18:33.712Z,9.20
2019-01-04T23:21:46.034Z,9.50
2019-01-04T23:24:37.171Z,9.70
2019-01-04T23:27:39.523Z,10.43
2019-01-04T23:30:41.809Z,9.60
2019-01-04T23:33:32.990Z,8.57
2019-01-04T23:36:30.662Z,9.87
2019-01-04T23:39:32.336Z,10.00
2019-01-04T23:42:24.670Z,7.07
2019-01-04T23:45:23.251Z,7.67
2019-01-04T23:48:20.109Z,7.57
2019-01-04T23:51:18.251Z,7.47
2019-01-04T23:54:03.214Z,7.40
2019-01-04T23:56:59.584Z,7.27
